createdAt,value
2023-02-16T00:00:59.151Z,13.43
2023-02-16T00:04:03.288Z,12.13
2023-02-16T00:07:06.218Z,12.63
2023-02-16T00:10:10.879Z,12.27
2023-02-16T00:13:41.703Z,12.70
2023-02-16T00:16:46.013Z,13.20
2023-02-16T00:19:48.952Z,12.00
2023-02-16T00:22:52.061Z,12.03
2023-02-16T00:25:55.516Z,12.77
2023-02-16T00:28:59.381Z,12.27
2023-02-16T00:32:05.046Z,13.23
2023-02-16T00:35:15.576Z,12.60
2023-02-16T00:38:18.545Z,11.63
2023-02-16T00:41:41.733Z,12.47
2023-02-16T00:44:47.804Z,13.23
2023-02-16T00:47:52.924Z,15.00
2023-02-16T00:50:55.867Z,12.93
2023-02-16T00:53:58.800Z,14.83
2023-02-16T00:57:01.786Z,15.03
2023-02-16T01:00:08.891Z,14.47
2023-02-16T01:03:17.057Z,14.67
2023-02-16T01:06:37.628Z,15.77
2023-02-16T01:09:57.927Z,17.37
2023-02-16T01:13:02.100Z,17.67
2023-02-16T01:16:05.259Z,17.27
2023-02-16T01:19:11.680Z,17.93
2023-02-16T01:22:14.697Z,18.90
2023-02-16T01:25:18.139Z,16.80
2023-02-16T01:28:23.369Z,18.33
2023-02-16T01:31:26.419Z,20.57
2023-02-16T01:34:30.724Z,19.67
2023-02-16T01:37:33.656Z,18.20
2023-02-16T01:40:43.685Z,20.30
2023-02-16T01:43:49.183Z,19.30
2023-02-16T01:46:55.659Z,19.57
2023-02-16T01:50:03.049Z,18.67
2023-02-16T01:53:15.170Z,19.20
2023-02-16T01:56:34.897Z,19.43
2023-02-16T02:00:00.347Z,19.70
2023-02-16T02:03:19.459Z,19.00
2023-02-16T02:06:33.055Z,18.83
2023-02-16T02:09:41.644Z,18.33
2023-02-16T02:12:52.753Z,19.10
2023-02-16T02:15:56.654Z,19.40
2023-02-16T02:18:59.586Z,19.27
2023-02-16T02:22:44.102Z,19.90
2023-02-16T02:26:25.159Z,19.57
2023-02-16T02:29:55.805Z,20.20
2023-02-16T02:33:21.301Z,19.90
2023-02-16T02:36:31.594Z,19.07
2023-02-16T02:39:42.289Z,19.47
2023-02-16T02:42:52.686Z,19.27
2023-02-16T02:46:00.476Z,19.57
2023-02-16T02:49:03.464Z,19.73
2023-02-16T02:52:07.013Z,19.10
2023-02-16T02:55:23.940Z,18.50
2023-02-16T02:58:45.103Z,18.37
2023-02-16T03:01:52.874Z,19.70
2023-02-16T03:04:57.597Z,18.67
2023-02-16T03:08:06.553Z,20.30
2023-02-16T03:11:29.923Z,18.10
2023-02-16T03:14:36.332Z,19.83
2023-02-16T03:17:59.985Z,18.57
2023-02-16T03:21:22.425Z,19.27
2023-02-16T03:24:46.453Z,17.73
2023-02-16T03:28:06.889Z,17.93
2023-02-16T03:31:12.824Z,19.33
2023-02-16T03:34:18.697Z,18.30
2023-02-16T03:37:21.924Z,18.67
2023-02-16T03:40:29.468Z,18.33
2023-02-16T03:43:32.644Z,18.63
2023-02-16T03:46:35.995Z,19.17
2023-02-16T03:49:40.270Z,18.60
2023-02-16T03:52:43.232Z,18.20
2023-02-16T03:55:47.983Z,18.47
2023-02-16T03:58:51.041Z,18.73
2023-02-16T04:01:54.036Z,19.00
2023-02-16T04:04:58.418Z,18.50
2023-02-16T04:08:01.865Z,18.07
2023-02-16T04:11:26.040Z,18.27
2023-02-16T04:14:28.041Z,17.93
2023-02-16T04:17:31.021Z,18.70
2023-02-16T04:20:36.202Z,18.00
2023-02-16T04:23:39.215Z,18.50
2023-02-16T04:26:42.168Z,17.57
2023-02-16T04:29:45.126Z,17.97
2023-02-16T04:32:48.102Z,19.07
2023-02-16T04:35:52.404Z,18.33
2023-02-16T04:38:55.337Z,17.93
2023-02-16T04:41:58.305Z,18.23
2023-02-16T04:45:01.424Z,17.60
2023-02-16T04:48:04.636Z,17.43
2023-02-16T04:51:09.097Z,16.87
2023-02-16T04:54:12.078Z,17.20
2023-02-16T04:57:15.557Z,17.20
2023-02-16T05:00:19.449Z,17.30
2023-02-16T05:03:22.442Z,17.73
2023-02-16T05:06:26.931Z,18.37
2023-02-16T05:09:29.913Z,16.57
2023-02-16T05:12:50.391Z,16.93
2023-02-16T05:15:53.370Z,17.37
2023-02-16T05:18:58.659Z,17.90
2023-02-16T05:22:03.401Z,17.63
2023-02-16T05:25:07.040Z,17.57
2023-02-16T05:28:10.202Z,16.97
2023-02-16T05:31:13.408Z,17.30
2023-02-16T05:34:16.471Z,18.60
2023-02-16T05:37:20.813Z,17.50
2023-02-16T05:40:23.778Z,17.13
2023-02-16T05:43:26.890Z,18.23
2023-02-16T05:46:32.684Z,17.43
2023-02-16T05:49:35.704Z,17.43
2023-02-16T05:52:40.037Z,18.10
2023-02-16T05:55:45.133Z,17.37
2023-02-16T05:58:48.613Z,16.50
2023-02-16T06:01:52.602Z,16.77
2023-02-16T06:04:55.691Z,17.20
2023-02-16T06:08:00.020Z,17.37
2023-02-16T06:11:03.245Z,19.20
2023-02-16T06:14:09.075Z,18.00
2023-02-16T06:17:12.048Z,18.10
2023-02-16T06:20:15.024Z,17.97
2023-02-16T06:23:19.661Z,20.00
2023-02-16T06:26:22.969Z,18.73
2023-02-16T06:29:26.547Z,18.70
2023-02-16T06:32:29.667Z,19.37
2023-02-16T06:35:36.986Z,19.50
2023-02-16T06:38:42.931Z,20.37
2023-02-16T06:41:45.866Z,18.87
2023-02-16T06:44:48.822Z,19.53
2023-02-16T06:47:51.747Z,18.97
2023-02-16T06:50:54.715Z,19.27
2023-02-16T06:53:59.174Z,19.77
2023-02-16T06:57:02.135Z,19.83
2023-02-16T07:00:07.341Z,19.90
2023-02-16T07:03:10.394Z,20.17
2023-02-16T07:06:13.390Z,19.00
2023-02-16T07:09:18.226Z,19.50
2023-02-16T07:12:21.184Z,20.47
2023-02-16T07:15:24.590Z,20.83
2023-02-16T07:18:27.628Z,20.93
2023-02-16T07:21:30.574Z,21.03
2023-02-16T07:24:34.902Z,21.33
2023-02-16T07:27:37.839Z,22.60
2023-02-16T07:30:41.089Z,21.57
2023-02-16T07:33:44.302Z,22.33
2023-02-16T07:36:47.248Z,21.73
2023-02-16T07:39:52.984Z,21.03
2023-02-16T07:42:56.161Z,21.97
2023-02-16T07:45:59.166Z,20.77
2023-02-16T07:49:02.263Z,20.80
2023-02-16T07:52:05.429Z,21.47
2023-02-16T07:55:11.250Z,20.40
2023-02-16T07:58:27.068Z,21.23
2023-02-16T08:01:31.059Z,23.70
2023-02-16T08:04:35.829Z,22.20
2023-02-16T08:07:39.600Z,20.93
2023-02-16T08:10:43.953Z,20.53
2023-02-16T08:13:47.353Z,20.33
2023-02-16T08:16:53.572Z,21.07
2023-02-16T08:19:57.813Z,21.37
2023-02-16T08:23:00.794Z,20.63
2023-02-16T08:26:10.767Z,20.73
2023-02-16T08:29:14.888Z,20.33
2023-02-16T08:32:17.924Z,21.00
2023-02-16T08:35:21.339Z,21.00
2023-02-16T08:38:24.296Z,19.33
2023-02-16T08:41:31.844Z,20.17
2023-02-16T08:44:35.129Z,19.73
2023-02-16T08:47:38.089Z,21.27
2023-02-16T08:50:46.971Z,20.83
2023-02-16T08:53:50.262Z,20.67
2023-02-16T08:56:55.620Z,20.50
2023-02-16T09:00:12.658Z,20.40
2023-02-16T09:03:16.435Z,20.60
2023-02-16T09:06:21.423Z,20.50
2023-02-16T09:09:24.453Z,20.83
2023-02-16T09:12:30.972Z,20.43
2023-02-16T09:15:34.254Z,20.23
2023-02-16T09:18:38.033Z,20.27
2023-02-16T09:21:41.539Z,22.00
2023-02-16T09:24:44.498Z,19.87
2023-02-16T09:27:49.540Z,21.00
2023-02-16T09:30:54.332Z,21.13
2023-02-16T09:33:59.115Z,19.90
2023-02-16T09:37:02.211Z,19.90
2023-02-16T09:40:06.032Z,20.00
2023-02-16T09:43:20.061Z,20.93
2023-02-16T09:46:25.018Z,20.53
2023-02-16T09:49:33.440Z,21.20
2023-02-16T09:52:40.310Z,20.77
2023-02-16T09:55:54.407Z,21.80
2023-02-16T09:59:05.321Z,19.73
2023-02-16T10:02:33.556Z,21.30
2023-02-16T10:05:45.864Z,21.20
2023-02-16T10:08:53.189Z,21.73
2023-02-16T10:12:01.938Z,21.60
2023-02-16T10:15:10.554Z,20.23
2023-02-16T10:18:22.005Z,20.07
2023-02-16T10:21:29.377Z,21.50
2023-02-16T10:24:40.228Z,21.43
2023-02-16T10:27:46.168Z,20.43
2023-02-16T10:30:56.611Z,20.87
2023-02-16T10:34:17.869Z,20.90
2023-02-16T10:37:33.304Z,20.97
2023-02-16T10:40:48.184Z,22.13
2023-02-16T10:43:56.787Z,21.17
2023-02-16T10:47:04.604Z,21.20
2023-02-16T10:50:16.862Z,20.40
2023-02-16T10:53:25.473Z,21.13
2023-02-16T10:56:49.745Z,19.93
2023-02-16T10:59:54.002Z,21.10
2023-02-16T11:03:02.489Z,21.33
2023-02-16T11:06:15.127Z,21.30
2023-02-16T11:09:18.064Z,21.43
2023-02-16T11:12:28.639Z,21.70
2023-02-16T11:15:32.119Z,22.63
2023-02-16T11:18:39.774Z,21.90
2023-02-16T11:21:48.265Z,21.17
2023-02-16T11:24:51.352Z,20.97
2023-02-16T11:27:58.035Z,21.63
2023-02-16T11:31:06.140Z,21.23
2023-02-16T11:34:21.288Z,21.60
2023-02-16T11:37:28.577Z,21.13
2023-02-16T11:40:34.321Z,21.97
2023-02-16T11:43:39.844Z,22.17
2023-02-16T11:46:43.042Z,22.93
2023-02-16T11:49:47.587Z,22.27
2023-02-16T11:52:52.531Z,22.07
2023-02-16T11:56:14.157Z,22.27
2023-02-16T11:59:20.667Z,22.07
2023-02-16T12:03:03.813Z,23.57
2023-02-16T12:06:28.616Z,22.63
2023-02-16T12:09:38.035Z,22.50
2023-02-16T12:12:50.534Z,22.87
2023-02-16T12:16:01.619Z,23.57
2023-02-16T12:19:24.196Z,23.47
2023-02-16T12:22:34.385Z,22.37
2023-02-16T12:25:39.921Z,23.60
2023-02-16T12:28:50.036Z,22.90
2023-02-16T12:32:07.818Z,23.37
2023-02-16T12:35:42.936Z,23.87
2023-02-16T12:39:00.258Z,22.77
2023-02-16T12:42:22.034Z,24.40
2023-02-16T12:45:28.687Z,24.83
2023-02-16T12:48:41.739Z,24.87
2023-02-16T12:51:49.830Z,24.80
2023-02-16T12:54:57.685Z,24.03
2023-02-16T12:58:09.417Z,25.20
2023-02-16T13:01:18.072Z,25.57
2023-02-16T13:04:27.161Z,26.70
2023-02-16T13:07:33.711Z,26.87
2023-02-16T13:10:48.358Z,27.00
2023-02-16T13:13:56.871Z,27.93
2023-02-16T13:17:03.436Z,27.07
2023-02-16T13:20:15.557Z,27.60
2023-02-16T13:23:37.167Z,26.87
2023-02-16T13:26:55.740Z,26.93
2023-02-16T13:30:26.078Z,26.67
2023-02-16T13:33:48.582Z,26.47
2023-02-16T13:37:11.048Z,26.00
2023-02-16T13:40:29.969Z,26.87
2023-02-16T13:43:37.571Z,25.90
2023-02-16T13:46:44.089Z,25.10
2023-02-16T13:49:48.094Z,24.43
2023-02-16T13:52:53.072Z,26.13
2023-02-16T13:56:17.999Z,25.20
2023-02-16T13:59:57.712Z,24.37
2023-02-16T14:03:08.472Z,25.33
2023-02-16T14:06:33.556Z,25.47
2023-02-16T14:09:50.704Z,24.33
2023-02-16T14:12:53.663Z,26.27
2023-02-16T14:15:58.621Z,25.27
2023-02-16T14:19:06.149Z,26.10
2023-02-16T14:22:13.100Z,25.93
2023-02-16T14:25:38.251Z,25.63
2023-02-16T14:29:12.410Z,26.63
2023-02-16T14:32:26.249Z,26.13
2023-02-16T14:35:35.011Z,26.30
2023-02-16T14:38:43.222Z,27.60
2023-02-16T14:41:46.479Z,27.30
2023-02-16T14:45:04.040Z,26.13
2023-02-16T14:48:21.458Z,25.63
2023-02-16T14:51:42.261Z,26.73
2023-02-16T14:55:13.264Z,25.23
2023-02-16T14:58:26.100Z,24.37
2023-02-16T15:01:29.185Z,24.90
2023-02-16T15:04:35.522Z,25.30
2023-02-16T15:07:39.974Z,25.33
2023-02-16T15:10:46.524Z,25.10
2023-02-16T15:13:53.275Z,25.10
2023-02-16T15:16:58.796Z,25.23
2023-02-16T15:20:08.014Z,25.13
2023-02-16T15:23:21.469Z,25.37
2023-02-16T15:26:27.249Z,26.50
2023-02-16T15:29:31.326Z,25.20
2023-02-16T15:32:34.395Z,26.10
2023-02-16T15:35:40.263Z,26.80
2023-02-16T15:38:56.929Z,25.77
2023-02-16T15:42:20.555Z,26.27
2023-02-16T15:45:36.564Z,27.03
2023-02-16T15:48:40.394Z,25.63
2023-02-16T15:51:44.725Z,27.37
2023-02-16T15:54:51.110Z,27.23
2023-02-16T15:57:54.426Z,28.30
2023-02-16T16:00:58.173Z,26.93
2023-02-16T16:04:07.471Z,26.63
2023-02-16T16:07:15.598Z,27.13
2023-02-16T16:10:24.863Z,27.77
2023-02-16T16:13:30.848Z,27.90
2023-02-16T16:16:34.757Z,27.30
2023-02-16T16:19:39.314Z,29.37
2023-02-16T16:22:43.672Z,28.70
2023-02-16T16:25:49.576Z,28.77
2023-02-16T16:28:52.942Z,30.63
2023-02-16T16:31:56.434Z,29.87
2023-02-16T16:34:59.952Z,30.07
2023-02-16T16:38:03.590Z,30.57
2023-02-16T16:41:07.917Z,28.43
2023-02-16T16:44:13.307Z,29.23
2023-02-16T16:47:25.320Z,29.03
2023-02-16T16:50:33.929Z,27.07
2023-02-16T16:53:52.767Z,27.50
2023-02-16T16:56:57.632Z,27.00
2023-02-16T17:00:00.590Z,26.87
2023-02-16T17:03:05.866Z,25.43
2023-02-16T17:06:09.555Z,25.03
2023-02-16T17:09:12.712Z,24.00
2023-02-16T17:12:18.314Z,24.13
2023-02-16T17:15:34.930Z,23.40
2023-02-16T17:18:37.950Z,23.10
2023-02-16T17:21:40.965Z,22.40
2023-02-16T17:24:44.000Z,21.60
2023-02-16T17:27:48.340Z,22.83
2023-02-16T17:30:51.381Z,22.07
2023-02-16T17:33:54.410Z,22.87
2023-02-16T17:36:57.524Z,23.30
2023-02-16T17:40:00.457Z,22.30
2023-02-16T17:43:12.023Z,21.60
2023-02-16T17:46:15.679Z,23.43
2023-02-16T17:49:18.688Z,21.23
2023-02-16T17:52:21.850Z,21.90
2023-02-16T17:55:25.170Z,21.60
2023-02-16T17:58:29.477Z,21.43
2023-02-16T18:01:32.897Z,22.40
2023-02-16T18:04:40.719Z,21.53
2023-02-16T18:07:43.796Z,22.50
2023-02-16T18:10:48.755Z,21.17
2023-02-16T18:13:53.293Z,21.47
2023-02-16T18:16:59.517Z,21.37
2023-02-16T18:20:04.226Z,21.43
2023-02-16T18:23:07.228Z,22.00
2023-02-16T18:26:18.558Z,20.47
2023-02-16T18:29:22.986Z,21.60
2023-02-16T18:32:26.650Z,20.37
2023-02-16T18:35:31.799Z,21.30
2023-02-16T18:38:34.789Z,20.60
2023-02-16T18:41:38.066Z,19.30
2023-02-16T18:44:42.386Z,20.93
2023-02-16T18:47:45.385Z,20.97
2023-02-16T18:50:48.520Z,20.83
2023-02-16T18:53:51.448Z,21.40
2023-02-16T18:56:55.025Z,21.37
2023-02-16T18:59:59.733Z,21.23
2023-02-16T19:03:02.756Z,21.73
2023-02-16T19:06:06.854Z,21.63
2023-02-16T19:09:09.962Z,21.00
2023-02-16T19:12:12.941Z,21.03
2023-02-16T19:15:17.259Z,21.20
2023-02-16T19:18:20.205Z,21.87
2023-02-16T19:21:23.335Z,23.50
2023-02-16T19:24:26.427Z,21.60
2023-02-16T19:27:29.478Z,22.67
2023-02-16T19:30:33.919Z,23.90
2023-02-16T19:33:37.115Z,23.53
2023-02-16T19:36:40.172Z,23.23
2023-02-16T19:39:43.185Z,24.40
2023-02-16T19:42:46.153Z,24.93
2023-02-16T19:45:50.663Z,26.97
2023-02-16T19:48:55.159Z,27.23
2023-02-16T19:52:02.192Z,26.20
2023-02-16T19:55:05.410Z,28.83
2023-02-16T19:58:08.446Z,28.27
2023-02-16T20:01:15.419Z,27.47
2023-02-16T20:04:18.405Z,27.57
2023-02-16T20:07:21.341Z,27.47
2023-02-16T20:10:24.341Z,26.73
2023-02-16T20:13:27.713Z,26.40
2023-02-16T20:16:32.205Z,27.07
2023-02-16T20:19:35.173Z,25.60
2023-02-16T20:22:38.183Z,27.20
2023-02-16T20:25:41.225Z,25.80
2023-02-16T20:28:44.283Z,25.23
2023-02-16T20:31:52.454Z,25.70
2023-02-16T20:34:55.506Z,27.93
2023-02-16T20:37:58.469Z,27.30
2023-02-16T20:41:01.549Z,27.43
2023-02-16T20:44:04.670Z,27.40
2023-02-16T20:47:10.185Z,27.37
2023-02-16T20:50:13.221Z,27.90
2023-02-16T20:53:16.180Z,27.97
2023-02-16T20:56:21.668Z,28.20
2023-02-16T20:59:24.648Z,28.23
2023-02-16T21:02:28.942Z,26.73
2023-02-16T21:05:31.971Z,27.83
2023-02-16T21:08:34.932Z,26.83
2023-02-16T21:11:39.899Z,26.53
2023-02-16T21:14:42.890Z,26.13
2023-02-16T21:17:47.212Z,26.53
2023-02-16T21:20:51.245Z,26.13
2023-02-16T21:23:55.444Z,24.60
2023-02-16T21:26:58.475Z,25.10
2023-02-16T21:30:01.571Z,24.17
2023-02-16T21:33:05.918Z,24.40
2023-02-16T21:36:10.964Z,24.00
2023-02-16T21:39:14.130Z,24.83
2023-02-16T21:42:16.152Z,24.83
2023-02-16T21:45:19.529Z,23.97
2023-02-16T21:48:41.533Z,23.00
2023-02-16T21:51:45.701Z,23.40
2023-02-16T21:55:06.463Z,24.70
2023-02-16T21:58:10.810Z,21.87
2023-02-16T22:01:14.768Z,21.50
2023-02-16T22:04:21.654Z,22.33
2023-02-16T22:07:24.872Z,22.60
2023-02-16T22:10:28.368Z,23.37
2023-02-16T22:13:31.353Z,23.70
2023-02-16T22:16:36.113Z,24.07
2023-02-16T22:19:40.510Z,26.13
2023-02-16T22:22:44.279Z,23.90
2023-02-16T22:25:47.250Z,26.70
2023-02-16T22:28:50.524Z,27.13
2023-02-16T22:31:53.605Z,27.00
2023-02-16T22:34:57.941Z,29.10
2023-02-16T22:38:00.948Z,28.00
2023-02-16T22:41:06.610Z,26.57
2023-02-16T22:44:11.731Z,28.50
2023-02-16T22:47:14.774Z,29.30
2023-02-16T22:50:19.363Z,28.07
2023-02-16T22:53:22.289Z,28.47
2023-02-16T22:56:26.817Z,27.10
2023-02-16T22:59:29.736Z,29.00
2023-02-16T23:02:33.118Z,26.97
2023-02-16T23:05:39.177Z,28.00
2023-02-16T23:08:42.566Z,27.33
2023-02-16T23:11:46.034Z,28.67
2023-02-16T23:14:49.069Z,27.43
2023-02-16T23:17:51.998Z,27.37
2023-02-16T23:20:56.267Z,27.90
2023-02-16T23:24:00.088Z,27.67
2023-02-16T23:27:03.091Z,28.53
2023-02-16T23:30:07.617Z,28.80
2023-02-16T23:33:10.640Z,27.70
2023-02-16T23:36:15.035Z,26.87
2023-02-16T23:39:19.057Z,28.57
2023-02-16T23:42:22.166Z,29.23
2023-02-16T23:45:25.124Z,28.03
2023-02-16T23:48:28.414Z,29.00
2023-02-16T23:51:32.763Z,30.43
2023-02-16T23:54:35.675Z,29.50
2023-02-16T23:57:38.706Z,29.97
